Time;durP1;ratioP1;P1;durP2;ratioP2;P2;SDS_P1;SDS_P2;PMS_P1;PMS_P2;Temp;Humidity;BMP_temperature;BMP_pressure;BME280_temperature;BME280_humidity;BME280_pressure;Samples;Min_cycle;Max_cycle;Signal;HPM_P1;HPM_P2
2021/03/24 00:00:17;;;;;;;38.30;34.72;;;2.50;84.80;;;;;;5094107;28;20243;-77
2021/03/24 00:02:43;;;;;;;37.40;34.00;;;2.50;84.50;;;;;;5094441;28;20206;-77
2021/03/24 00:05:12;;;;;;;36.20;33.22;;;2.40;86.60;;;;;;5094362;28;20207;-77
2021/03/24 00:07:38;;;;;;;39.20;35.55;;;2.30;86.20;;;;;;5094005;28;20193;-77
2021/03/24 00:10:08;;;;;;;37.85;34.35;;;2.20;86.20;;;;;;5094058;28;20216;-77
2021/03/24 00:12:35;;;;;;;36.03;32.63;;;2.20;86.10;;;;;;5094003;28;20681;-77
2021/03/24 00:15:02;;;;;;;37.88;34.35;;;2.20;86.20;;;;;;5094234;28;20201;-77
2021/03/24 00:17:29;;;;;;;42.60;35.08;;;2.30;85.90;;;;;;5093906;28;20221;-77
2021/03/24 00:19:55;;;;;;;36.80;32.83;;;2.20;86.60;;;;;;5094007;28;20220;-77
2021/03/24 00:22:21;;;;;;;36.22;32.80;;;2.20;86.60;;;;;;5093974;28;20660;-77
2021/03/24 00:24:48;;;;;;;36.15;32.83;;;2.20;86.80;;;;;;5093909;28;20194;-77
2021/03/24 00:27:15;;;;;;;35.35;32.13;;;2.20;86.70;;;;;;5093693;28;20691;-77
2021/03/24 00:29:41;;;;;;;35.60;32.38;;;2.30;86.60;;;;;;5093747;28;20222;-77
2021/03/24 00:32:09;;;;;;;36.50;32.83;;;2.30;86.50;;;;;;5093929;28;20567;-77
2021/03/24 00:34:36;;;;;;;38.30;34.45;;;2.20;86.60;;;;;;5093819;28;20697;-77
2021/03/24 00:37:02;;;;;;;39.13;35.55;;;2.20;86.80;;;;;;5093547;28;20697;-77
2021/03/24 00:39:29;;;;;;;37.22;33.97;;;2.20;86.70;;;;;;5093563;28;20247;-77
2021/03/24 00:41:55;;;;;;;38.38;34.72;;;2.20;86.70;;;;;;5093695;28;20257;-77
2021/03/24 00:44:22;;;;;;;35.42;32.05;;;2.20;86.60;;;;;;5092938;28;20209;-77
2021/03/24 00:46:49;;;;;;;38.28;34.28;;;2.20;86.60;;;;;;5093416;28;20201;-77
2021/03/24 00:49:15;;;;;;;35.55;32.08;;;2.20;86.60;;;;;;5093419;28;20316;-76
2021/03/24 00:51:42;;;;;;;37.72;34.45;;;2.30;86.40;;;;;;5093343;28;20647;-77
2021/03/24 00:54:08;;;;;;;641.28;98.43;;;2.30;86.20;;;;;;5093395;28;20200;-77
2021/03/24 00:56:34;;;;;;;619.40;94.35;;;2.30;87.60;;;;;;5092791;28;20197;-77
2021/03/24 00:59:01;;;;;;;36.47;32.97;;;2.30;93.70;;;;;;5093184;28;20246;-77
2021/03/24 01:01:28;;;;;;;34.05;30.90;;;2.30;95.50;;;;;;5093000;28;20191;-77
2021/03/24 01:03:54;;;;;;;35.47;31.95;;;2.20;93.70;;;;;;5093372;28;20195;-77
2021/03/24 01:06:21;;;;;;;35.67;31.83;;;2.20;91.70;;;;;;5093115;28;20559;-77
2021/03/24 01:08:47;;;;;;;35.15;31.73;;;2.10;90.10;;;;;;5092983;28;20257;-77
2021/03/24 01:11:14;;;;;;;35.88;32.25;;;2.10;89.20;;;;;;5093112;28;20283;-77
2021/03/24 01:13:40;;;;;;;35.70;32.15;;;2.10;88.80;;;;;;5093224;28;20296;-77
2021/03/24 01:16:06;;;;;;;35.53;32.22;;;2.00;88.30;;;;;;5093118;28;20211;-76
2021/03/24 01:18:34;;;;;;;35.95;32.55;;;2.00;88.20;;;;;;5093044;28;20219;-77
2021/03/24 01:21:00;;;;;;;251.05;54.85;;;2.00;88.00;;;;;;5093152;28;20202;-76
2021/03/24 01:23:26;;;;;;;318.88;68.90;;;2.00;89.70;;;;;;5092991;28;20248;-78
2021/03/24 01:25:53;;;;;;;35.15;31.88;;;2.00;91.90;;;;;;5092917;28;20280;-76
2021/03/24 01:28:25;;;;;;;35.05;31.63;;;2.00;92.10;;;;;;5092994;28;20229;-77
2021/03/24 01:30:54;;;;;;;35.72;32.67;;;2.00;90.70;;;;;;5092884;28;20273;-77
2021/03/24 01:33:20;;;;;;;35.38;32.08;;;2.00;89.70;;;;;;5092889;28;20288;-77
2021/03/24 01:35:48;;;;;;;1999.90;335.70;;;2.00;89.00;;;;;;5092682;28;20205;-77
2021/03/24 01:38:15;;;;;;;38.30;34.70;;;2.00;92.30;;;;;;5092819;28;20577;-77
2021/03/24 01:40:43;;;;;;;36.65;33.33;;;2.00;93.60;;;;;;5092666;28;20220;-77
2021/03/24 01:43:18;;;;;;;36.80;33.08;;;1.90;91.60;;;;;;5092589;28;20201;-77
2021/03/24 01:46:23;;;;;;;35.97;32.35;;;2.00;90.90;;;;;;5092561;28;20197;-77
2021/03/24 01:48:53;;;;;;;36.65;32.90;;;2.00;90.20;;;;;;5092653;28;20216;-77
2021/03/24 01:51:21;;;;;;;36.13;32.33;;;2.00;90.10;;;;;;5092711;28;20201;-77
2021/03/24 01:53:50;;;;;;;183.35;47.50;;;2.00;90.80;;;;;;5092803;28;20649;-77
2021/03/24 01:56:17;;;;;;;163.57;48.60;;;2.00;93.50;;;;;;5096947;28;20205;-77
2021/03/24 01:58:44;;;;;;;35.30;32.00;;;2.10;93.00;;;;;;5100189;28;20694;-77
2021/03/24 02:01:14;;;;;;;35.78;32.58;;;2.10;91.80;;;;;;5096822;28;20196;-77
2021/03/24 02:03:40;;;;;;;36.50;33.25;;;2.10;91.00;;;;;;5096920;28;20202;-77
2021/03/24 02:06:14;;;;;;;333.15;69.43;;;2.10;91.60;;;;;;5096661;28;20723;-77
2021/03/24 02:08:46;;;;;;;37.65;34.08;;;2.10;93.20;;;;;;5096928;28;20195;-77
2021/03/24 02:11:16;;;;;;;35.25;32.00;;;2.10;91.90;;;;;;5096622;28;20731;-77
2021/03/24 02:13:47;;;;;;;37.97;34.05;;;2.10;91.00;;;;;;5096869;28;20209;-77
2021/03/24 02:16:19;;;;;;;35.95;32.70;;;2.00;91.40;;;;;;5096633;28;20257;-77
2021/03/24 02:18:48;;;;;;;36.85;32.95;;;2.00;90.90;;;;;;5096728;28;20312;-77
2021/03/24 02:21:18;;;;;;;36.63;32.90;;;2.00;89.90;;;;;;5096501;28;20194;-77
2021/03/24 02:23:54;;;;;;;34.90;31.77;;;2.10;89.10;;;;;;5096342;28;20254;-77
2021/03/24 02:26:27;;;;;;;34.50;31.60;;;2.00;88.20;;;;;;5096229;28;20197;-77
2021/03/24 02:28:57;;;;;;;37.70;34.22;;;1.90;87.60;;;;;;5096334;28;20305;-78
2021/03/24 02:31:27;;;;;;;35.50;32.10;;;1.90;87.60;;;;;;5096172;28;20562;-77
2021/03/24 02:33:56;;;;;;;621.28;85.07;;;1.80;87.50;;;;;;5096188;28;20207;-77
2021/03/24 02:36:24;;;;;;;345.58;68.78;;;1.80;87.60;;;;;;5095970;28;20680;-77
2021/03/24 02:38:53;;;;;;;623.53;101.85;;;1.70;90.50;;;;;;5096050;28;20304;-77
2021/03/24 02:41:20;;;;;;;111.70;37.83;;;1.60;94.20;;;;;;5095983;28;20246;-77
2021/03/24 02:43:47;;;;;;;34.95;31.40;;;1.70;97.20;;;;;;5095845;28;20208;-77
2021/03/24 02:46:15;;;;;;;51.40;32.40;;;1.60;94.30;;;;;;5095875;28;20193;-77
2021/03/24 02:48:43;;;;;;;35.83;32.50;;;1.60;93.00;;;;;;5095604;28;20288;-77
2021/03/24 02:51:14;;;;;;;34.08;30.98;;;1.50;92.30;;;;;;5095767;28;20197;-76
2021/03/24 02:53:41;;;;;;;35.63;32.22;;;1.50;91.60;;;;;;5095789;28;20673;-77
2021/03/24 02:56:09;;;;;;;34.55;31.25;;;1.50;90.60;;;;;;5095126;28;20208;-76
2021/03/24 02:58:36;;;;;;;34.42;31.35;;;1.50;90.00;;;;;;5095490;28;20226;-77
2021/03/24 03:01:07;;;;;;;35.38;31.88;;;1.50;89.50;;;;;;5095418;28;20204;-76
2021/03/24 03:03:39;;;;;;;34.97;31.55;;;1.50;89.50;;;;;;5095727;28;20219;-76
2021/03/24 03:06:08;;;;;;;34.70;31.60;;;1.40;90.80;;;;;;5095668;28;20196;-76
2021/03/24 03:08:38;;;;;;;35.75;32.38;;;1.40;93.30;;;;;;5094951;28;20557;-76
2021/03/24 03:11:10;;;;;;;36.42;33.13;;;1.40;92.40;;;;;;5095512;28;20192;-76
2021/03/24 03:13:40;;;;;;;36.55;32.88;;;1.40;91.40;;;;;;5095311;28;20208;-77
2021/03/24 03:16:11;;;;;;;35.92;32.80;;;1.40;90.90;;;;;;5095109;28;20544;-76
2021/03/24 03:18:42;;;;;;;35.65;32.42;;;1.40;90.60;;;;;;5095357;28;20725;-77
2021/03/24 03:21:13;;;;;;;36.10;32.80;;;1.30;89.70;;;;;;5095379;28;20258;-76
2021/03/24 03:23:42;;;;;;;34.33;31.17;;;1.40;89.50;;;;;;5095292;28;20265;-77
2021/03/24 03:26:13;;;;;;;1629.30;245.45;;;1.40;89.40;;;;;;5095105;28;20196;-76
2021/03/24 03:28:41;;;;;;;36.13;32.30;;;1.40;93.60;;;;;;5095100;28;20608;-77
2021/03/24 03:31:16;;;;;;;36.75;33.17;;;1.40;93.50;;;;;;5095032;28;20203;-77
2021/03/24 03:33:48;;;;;;;36.22;32.70;;;1.40;92.60;;;;;;5095001;28;20202;-76
2021/03/24 03:36:15;;;;;;;36.83;33.45;;;1.30;91.90;;;;;;5094923;28;20254;-76
2021/03/24 03:38:43;;;;;;;35.95;32.30;;;1.40;91.30;;;;;;5094570;28;20223;-76
2021/03/24 03:41:13;;;;;;;35.03;31.45;;;1.40;90.40;;;;;;5094798;28;20193;-76
2021/03/24 03:43:40;;;;;;;293.95;58.83;;;1.40;90.10;;;;;;5094594;28;20222;-76
2021/03/24 03:46:09;;;;;;;34.40;31.23;;;1.40;91.20;;;;;;5094642;28;20198;-76
2021/03/24 03:48:35;;;;;;;636.50;96.35;;;1.30;93.10;;;;;;5094582;28;20621;-76
2021/03/24 03:51:06;;;;;;;59.65;35.60;;;1.30;91.90;;;;;;5094580;28;20231;-76
2021/03/24 03:53:39;;;;;;;37.85;34.10;;;1.30;94.60;;;;;;5094583;28;20204;-77
2021/03/24 03:56:10;;;;;;;35.95;32.40;;;1.40;94.00;;;;;;5094357;28;20200;-76
2021/03/24 03:58:44;;;;;;;1999.90;342.90;;;1.30;93.50;;;;;;5094364;28;20228;-76
2021/03/24 04:01:15;;;;;;;36.83;33.08;;;1.30;95.40;;;;;;5094301;28;20766;-76
2021/03/24 04:03:46;;;;;;;554.30;101.88;;;1.40;96.00;;;;;;5094509;28;20206;-77
2021/03/24 04:06:18;;;;;;;38.28;33.67;;;1.40;95.40;;;;;;5095714;28;20200;-77
2021/03/24 04:08:47;;;;;;;37.53;33.83;;;1.40;97.70;;;;;;5095455;28;20282;-76
2021/03/24 04:11:16;;;;;;;40.05;35.72;;;1.40;95.40;;;;;;5094358;28;20200;-76
2021/03/24 04:13:45;;;;;;;36.47;32.95;;;1.40;94.40;;;;;;5094289;28;20236;-76
2021/03/24 04:16:12;;;;;;;36.22;32.92;;;1.30;93.20;;;;;;5093933;28;20209;-77
2021/03/24 04:18:41;;;;;;;39.17;35.15;;;1.40;93.30;;;;;;5093155;28;20225;-76
2021/03/24 04:21:09;;;;;;;1887.15;333.80;;;1.40;92.70;;;;;;5093968;28;20222;-77
2021/03/24 04:23:40;;;;;;;40.35;36.42;;;1.40;94.10;;;;;;5094034;28;20277;-77
2021/03/24 04:26:11;;;;;;;39.15;35.15;;;1.40;95.30;;;;;;5094010;28;20572;-77
2021/03/24 04:28:41;;;;;;;37.97;34.20;;;1.50;94.80;;;;;;5093830;28;20197;-76
2021/03/24 04:31:10;;;;;;;37.47;33.58;;;1.50;94.50;;;;;;5094117;28;20200;-76
2021/03/24 04:33:37;;;;;;;52.85;36.38;;;1.50;93.80;;;;;;5093774;28;20662;-76
2021/03/24 04:36:09;;;;;;;1999.90;388.63;;;1.50;94.70;;;;;;5093641;28;20305;-76
2021/03/24 04:38:41;;;;;;;35.40;31.98;;;1.40;97.40;;;;;;5093696;28;20223;-76
2021/03/24 04:41:11;;;;;;;39.08;34.92;;;1.40;97.20;;;;;;5093708;28;20200;-77
2021/03/24 04:43:40;;;;;;;43.75;34.30;;;1.40;96.10;;;;;;5093575;28;20227;-77
2021/03/24 04:46:12;;;;;;;39.53;35.33;;;1.30;98.20;;;;;;5093595;28;20201;-76
2021/03/24 04:48:44;;;;;;;35.65;32.08;;;1.30;96.80;;;;;;5093673;28;20741;-77
2021/03/24 04:51:12;;;;;;;36.65;33.20;;;1.20;95.20;;;;;;5093591;28;20212;-77
2021/03/24 04:53:43;;;;;;;37.40;33.53;;;1.20;94.50;;;;;;5093464;28;20654;-77
2021/03/24 04:56:12;;;;;;;37.42;33.60;;;1.20;94.00;;;;;;5093113;28;20199;-76
2021/03/24 04:58:42;;;;;;;37.80;34.05;;;1.20;92.70;;;;;;5093295;28;20566;-76
2021/03/24 05:01:15;;;;;;;102.53;40.13;;;1.20;92.50;;;;;;5093211;28;20205;-76
2021/03/24 05:03:44;;;;;;;38.28;34.38;;;1.10;92.00;;;;;;5093423;28;20648;-76
2021/03/24 05:06:21;;;;;;;34.65;31.40;;;1.10;92.50;;;;;;5093038;28;20670;-76
2021/03/24 05:08:48;;;;;;;38.00;34.00;;;1.10;92.00;;;;;;5093421;28;20711;-76
2021/03/24 05:11:23;;;;;;;39.22;35.83;;;1.10;91.50;;;;;;5093177;28;20199;-76
2021/03/24 05:13:57;;;;;;;38.33;34.92;;;1.10;91.20;;;;;;5093275;28;20199;-76
2021/03/24 05:16:28;;;;;;;39.17;35.35;;;1.10;91.00;;;;;;5092848;28;20658;-77
2021/03/24 05:18:57;;;;;;;38.05;34.65;;;1.20;90.50;;;;;;5093065;28;20623;-77
2021/03/24 05:21:51;;;;;;;40.33;35.92;;;1.20;90.60;;;;;;5093187;28;20203;-77
2021/03/24 05:24:26;;;;;;;38.58;34.88;;;1.20;90.20;;;;;;5092891;28;20195;-76
2021/03/24 05:26:58;;;;;;;37.72;34.08;;;1.10;90.30;;;;;;5092674;28;20742;-77
2021/03/24 05:29:28;;;;;;;46.10;38.22;;;1.10;90.40;;;;;;5092795;28;20239;-76
2021/03/24 05:31:57;;;;;;;1697.53;244.65;;;1.10;90.50;;;;;;5092592;28;20659;-76
2021/03/24 05:34:26;;;;;;;39.22;35.38;;;1.10;91.70;;;;;;5092861;28;20258;-76
2021/03/24 05:36:53;;;;;;;41.00;36.15;;;1.20;92.00;;;;;;5092646;28;20283;-76
2021/03/24 05:39:25;;;;;;;41.40;37.15;;;1.20;91.40;;;;;;5092605;28;20302;-76
2021/03/24 05:42:07;;;;;;;38.85;35.10;;;1.30;90.90;;;;;;5092820;28;20199;-76
2021/03/24 05:44:45;;;;;;;38.78;35.03;;;1.30;90.50;;;;;;5092702;28;20212;-76
2021/03/24 05:47:38;;;;;;;40.22;36.13;;;1.50;89.90;;;;;;5092650;28;20210;-76
2021/03/24 05:50:42;;;;;;;37.20;33.55;;;1.50;89.40;;;;;;5092743;28;20224;-77
2021/03/24 05:53:23;;;;;;;43.08;36.15;;;1.50;89.40;;;;;;5079706;28;20196;-76
2021/03/24 05:55:55;;;;;;;1992.32;301.80;;;1.50;90.10;;;;;;5092333;28;20200;-76
2021/03/24 05:58:32;;;;;;;657.50;119.95;;;1.60;90.20;;;;;;5092480;28;20216;-77
2021/03/24 06:01:04;;;;;;;894.33;139.23;;;1.60;97.90;;;;;;5092432;28;20203;-76
2021/03/24 06:03:52;;;;;;;39.70;35.35;;;1.60;95.20;;;;;;5092627;28;20241;-77
2021/03/24 06:06:48;;;;;;;38.78;34.97;;;1.70;95.00;;;;;;5092469;28;20631;-76
2021/03/24 06:09:39;;;;;;;40.17;36.15;;;1.80;94.00;;;;;;5092575;28;20217;-76
2021/03/24 06:12:21;;;;;;;38.58;34.80;;;2.00;92.80;;;;;;5092676;28;20209;-76
2021/03/24 06:15:12;;;;;;;42.00;34.78;;;2.00;91.50;;;;;;5092499;28;20197;-76
2021/03/24 06:18:05;;;;;;;41.35;37.40;;;2.10;95.20;;;;;;5094375;28;20226;-77
2021/03/24 06:20:39;;;;;;;344.27;61.75;;;2.20;93.00;;;;;;5092653;28;20229;-76
2021/03/24 06:23:41;;;;;;;37.38;33.70;;;2.30;93.90;;;;;;5092457;28;20210;-77
2021/03/24 06:26:31;;;;;;;374.63;69.00;;;2.40;94.40;;;;;;5092333;28;20195;-77
2021/03/24 06:29:06;;;;;;;40.47;36.47;;;2.40;94.90;;;;;;5092282;28;20211;-77
2021/03/24 06:32:01;;;;;;;1977.43;315.10;;;2.50;96.20;;;;;;5092362;28;20191;-76
2021/03/24 06:35:09;;;;;;;38.20;33.65;;;2.60;96.20;;;;;;5092260;28;20199;-76
2021/03/24 06:38:01;;;;;;;327.85;63.80;;;2.70;94.40;;;;;;5091946;28;20725;-76
2021/03/24 06:40:39;;;;;;;39.85;36.13;;;2.70;94.70;;;;;;5092216;28;20244;-76
2021/03/24 06:43:22;;;;;;;41.00;36.80;;;2.70;91.70;;;;;;5094209;28;20548;-77
2021/03/24 06:45:56;;;;;;;39.03;35.33;;;2.90;90.50;;;;;;5095866;28;20195;-76
2021/03/24 06:48:48;;;;;;;35.65;32.40;;;3.00;89.20;;;;;;5095853;28;20198;-76
2021/03/24 06:52:09;;;;;;;39.30;35.78;;;3.10;87.60;;;;;;5084073;28;20195;-77
2021/03/24 06:55:23;;;;;;;40.13;35.95;;;3.30;87.20;;;;;;5095886;28;20195;-76
2021/03/24 06:58:12;;;;;;;35.88;32.58;;;3.40;90.20;;;;;;5095605;28;20222;-76
2021/03/24 07:01:02;;;;;;;39.10;35.35;;;3.40;89.00;;;;;;5095377;28;20696;-76
2021/03/24 07:04:07;;;;;;;38.97;35.17;;;3.50;88.30;;;;;;5095974;28;20195;-77
2021/03/24 07:06:58;;;;;;;37.80;34.10;;;3.60;88.10;;;;;;5096114;28;20202;-77
2021/03/24 07:09:35;;;;;;;38.17;34.70;;;3.80;86.50;;;;;;5095692;28;20225;-77
2021/03/24 07:12:15;;;;;;;39.83;35.78;;;3.80;84.50;;;;;;5095632;28;20566;-76
2021/03/24 07:15:08;;;;;;;40.60;36.97;;;4.00;84.60;;;;;;5095716;28;20201;-76
2021/03/24 07:18:01;;;;;;;40.80;36.83;;;4.00;84.20;;;;;;5095221;28;20683;-76
2021/03/24 07:20:52;;;;;;;39.78;35.30;;;4.20;83.20;;;;;;5095054;28;20306;-76
2021/03/24 07:23:47;;;;;;;39.33;35.53;;;4.40;82.50;;;;;;5096143;28;20223;-76
2021/03/24 07:26:23;;;;;;;41.45;36.65;;;4.40;82.60;;;;;;5095021;28;20290;-77
2021/03/24 07:29:03;;;;;;;46.42;38.33;;;4.60;83.80;;;;;;5095225;28;20215;-76
2021/03/24 07:32:00;;;;;;;37.78;34.08;;;4.60;84.50;;;;;;5095890;28;20552;-76
2021/03/24 07:34:55;;;;;;;38.88;35.25;;;4.80;84.90;;;;;;5095108;28;20205;-76
2021/03/24 07:37:47;;;;;;;39.28;35.78;;;5.00;82.50;;;;;;5088865;28;20248;-77
2021/03/24 07:40:37;;;;;;;39.00;35.50;;;5.20;80.50;;;;;;5095161;28;20222;-77
2021/03/24 07:43:30;;;;;;;40.10;35.90;;;5.30;79.60;;;;;;5092127;28;20561;-76
2021/03/24 07:46:18;;;;;;;41.08;37.30;;;5.30;79.20;;;;;;5095020;28;20199;-76
2021/03/24 07:49:13;;;;;;;40.45;36.92;;;5.40;79.00;;;;;;5084154;28;20199;-77
2021/03/24 07:52:15;;;;;;;40.00;36.58;;;5.50;79.10;;;;;;5094871;28;20195;-77
2021/03/24 07:54:50;;;;;;;38.90;35.30;;;5.60;79.50;;;;;;5094650;28;20202;-77
2021/03/24 07:57:28;;;;;;;39.92;36.33;;;5.80;78.80;;;;;;5094154;28;20669;-77
2021/03/24 08:00:04;;;;;;;40.38;36.88;;;5.90;77.70;;;;;;5094827;28;20566;-77
2021/03/24 08:02:42;;;;;;;38.45;35.13;;;6.00;77.60;;;;;;5094422;28;20204;-77
2021/03/24 08:05:27;;;;;;;41.13;37.30;;;6.20;76.90;;;;;;5094494;28;20195;-77
2021/03/24 08:08:03;;;;;;;37.95;34.72;;;6.20;76.80;;;;;;5094479;28;20193;-77
2021/03/24 08:10:35;;;;;;;39.47;35.75;;;6.30;75.70;;;;;;5094567;28;20310;-77
2021/03/24 08:13:27;;;;;;;40.28;36.47;;;6.40;75.10;;;;;;5094375;28;20557;-77
2021/03/24 08:16:16;;;;;;;44.33;40.53;;;6.60;75.10;;;;;;5081008;28;20203;-77
2021/03/24 08:18:53;;;;;;;40.88;36.92;;;6.70;74.20;;;;;;5094219;28;20219;-77
2021/03/24 08:21:25;;;;;;;40.40;36.63;;;6.90;73.30;;;;;;5094080;28;20199;-77
2021/03/24 08:24:09;;;;;;;39.38;36.00;;;6.90;73.40;;;;;;5093975;28;20195;-77
2021/03/24 08:26:44;;;;;;;40.10;36.17;;;7.10;72.50;;;;;;5093845;28;20199;-77
2021/03/24 08:29:18;;;;;;;41.08;37.78;;;7.10;72.20;;;;;;5095132;28;20220;-77
2021/03/24 08:32:15;;;;;;;41.95;38.05;;;7.20;72.00;;;;;;5094650;28;20210;-77
2021/03/24 08:34:57;;;;;;;38.78;35.22;;;7.20;71.70;;;;;;5093997;28;20202;-77
2021/03/24 08:37:57;;;;;;;41.20;37.67;;;7.30;71.70;;;;;;5093562;28;20209;-77
2021/03/24 08:40:42;;;;;;;43.08;39.17;;;7.50;70.60;;;;;;5093774;28;20237;-77
2021/03/24 08:43:36;;;;;;;42.08;38.55;;;7.70;70.20;;;;;;5093588;28;20201;-77
2021/03/24 08:46:12;;;;;;;42.92;37.90;;;7.70;70.00;;;;;;5093650;28;20234;-77
2021/03/24 08:48:45;;;;;;;40.10;36.80;;;7.80;69.60;;;;;;5093596;28;20253;-77
2021/03/24 08:51:17;;;;;;;51.55;39.50;;;7.90;69.10;;;;;;5093498;28;20195;-77
2021/03/24 08:53:55;;;;;;;45.15;40.65;;;8.00;68.90;;;;;;5093619;28;20610;-76
2021/03/24 08:56:35;;;;;;;39.88;36.58;;;8.00;68.80;;;;;;5093336;28;20206;-78
2021/03/24 08:59:11;;;;;;;40.90;37.00;;;8.20;68.60;;;;;;5093344;28;20223;-78
2021/03/24 09:01:58;;;;;;;44.25;39.95;;;8.30;68.30;;;;;;5093148;28;20672;-77
2021/03/24 09:04:48;;;;;;;41.65;37.78;;;8.40;68.20;;;;;;5093298;28;20199;-77
2021/03/24 09:07:29;;;;;;;40.72;37.03;;;8.50;67.80;;;;;;5093141;28;20195;-77
2021/03/24 09:10:10;;;;;;;42.22;38.28;;;8.50;67.90;;;;;;5093890;28;20714;-77
2021/03/24 09:12:43;;;;;;;42.65;38.75;;;8.70;67.70;;;;;;5093675;28;20195;-77
2021/03/24 09:15:16;;;;;;;43.53;39.72;;;8.80;67.40;;;;;;5093048;28;20736;-77
2021/03/24 09:17:55;;;;;;;41.03;37.17;;;8.90;66.90;;;;;;5092917;28;20313;-77
2021/03/24 09:21:02;;;;;;;40.58;37.17;;;8.90;67.00;;;;;;5092993;28;20223;-77
2021/03/24 09:23:51;;;;;;;46.08;40.97;;;9.10;66.70;;;;;;5062404;28;20289;-77
2021/03/24 09:27:01;;;;;;;44.20;40.35;;;9.30;66.30;;;;;;5092732;28;20199;-77
2021/03/24 09:29:43;;;;;;;41.47;37.55;;;9.40;65.80;;;;;;5093012;28;20233;-77
2021/03/24 09:32:31;;;;;;;40.72;37.35;;;9.40;65.30;;;;;;5093011;28;20195;-77
2021/03/24 09:35:08;;;;;;;39.90;36.65;;;9.40;65.50;;;;;;5092988;28;20561;-77
2021/03/24 09:37:37;;;;;;;42.88;39.28;;;9.40;65.10;;;;;;5092605;28;20191;-77
2021/03/24 09:40:08;;;;;;;41.25;37.45;;;9.60;64.80;;;;;;5093046;28;20302;-77
2021/03/24 09:42:39;;;;;;;39.63;36.05;;;9.60;65.00;;;;;;5092963;28;20194;-77
2021/03/24 09:45:17;;;;;;;42.58;39.08;;;9.70;65.40;;;;;;5092760;28;20680;-77
2021/03/24 09:47:49;;;;;;;42.15;38.63;;;9.70;65.90;;;;;;5092590;28;20227;-76
2021/03/24 09:50:34;;;;;;;40.65;36.80;;;9.70;65.70;;;;;;5092721;28;20591;-77
2021/03/24 09:53:05;;;;;;;42.42;38.83;;;9.90;65.20;;;;;;5092731;28;20278;-77
2021/03/24 09:55:36;;;;;;;41.10;37.60;;;10.00;64.70;;;;;;5092392;28;20668;-76
2021/03/24 09:58:40;;;;;;;39.13;35.90;;;9.90;64.20;;;;;;5092447;28;20215;-76
2021/03/24 10:01:35;;;;;;;39.47;36.33;;;9.90;64.10;;;;;;5092547;28;20346;-77
2021/03/24 10:04:14;;;;;;;41.17;37.53;;;9.80;64.50;;;;;;5092621;28;20895;-77
2021/03/24 10:06:52;;;;;;;41.13;37.53;;;9.90;64.50;;;;;;5092509;28;20506;-77
2021/03/24 10:09:29;;;;;;;41.00;37.70;;;10.20;64.10;;;;;;5092471;28;20517;-77
2021/03/24 10:12:05;;;;;;;39.70;36.13;;;10.40;63.60;;;;;;5092441;28;20453;-77
2021/03/24 10:14:37;;;;;;;40.27;36.73;;;10.50;63.10;;;;;;5092638;28;20480;-76
2021/03/24 10:17:11;;;;;;;41.17;37.77;;;10.60;63.00;;;;;;5093092;28;20450;-77
2021/03/24 10:19:42;;;;;;;40.50;37.20;;;10.60;62.90;;;;;;5096361;28;20618;-77
2021/03/24 10:22:12;;;;;;;41.47;37.83;;;10.60;62.10;;;;;;5096461;28;20453;-77
2021/03/24 10:24:44;;;;;;;41.87;38.17;;;10.60;62.10;;;;;;5096294;28;20457;-77
2021/03/24 10:27:13;;;;;;;38.63;35.40;;;10.60;61.80;;;;;;5096946;28;20453;-77
2021/03/24 10:29:44;;;;;;;37.03;34.00;;;10.80;60.90;;;;;;5097160;28;20492;-77
2021/03/24 10:32:24;;;;;;;35.83;33.03;;;10.90;59.60;;;;;;5096485;28;20548;-77
2021/03/24 10:34:57;;;;;;;38.37;35.33;;;10.80;59.70;;;;;;5096384;28;20519;-76
2021/03/24 10:37:30;;;;;;;39.13;35.47;;;10.80;59.90;;;;;;5095828;28;20449;-77
2021/03/24 10:40:02;;;;;;;38.50;35.30;;;10.90;60.60;;;;;;5095783;28;20484;-77
2021/03/24 10:42:35;;;;;;;38.70;35.30;;;11.00;60.30;;;;;;5096373;28;20837;-77
2021/03/24 10:45:06;;;;;;;38.80;35.80;;;11.20;59.60;;;;;;5095825;28;20471;-77
2021/03/24 10:47:38;;;;;;;39.17;36.17;;;11.20;59.80;;;;;;5095752;28;20934;-77
2021/03/24 10:50:20;;;;;;;39.03;35.53;;;11.00;59.80;;;;;;5095826;28;20481;-76
2021/03/24 10:53:04;;;;;;;39.10;35.63;;;11.00;60.10;;;;;;5096031;28;20536;-77
2021/03/24 10:55:33;;;;;;;39.40;35.90;;;11.20;59.70;;;;;;5095495;28;20463;-77
2021/03/24 10:58:18;;;;;;;39.13;35.87;;;11.40;59.60;;;;;;5095587;28;20564;-77
2021/03/24 11:00:50;;;;;;;40.47;37.07;;;11.50;59.10;;;;;;5095696;28;20564;-76
2021/03/24 11:03:20;;;;;;;42.00;38.60;;;11.50;59.00;;;;;;5095801;28;20463;-77
2021/03/24 11:05:50;;;;;;;40.47;37.17;;;11.50;59.10;;;;;;5095560;28;20461;-77
2021/03/24 11:08:26;;;;;;;39.30;35.97;;;11.50;59.30;;;;;;5095549;28;20445;-77
2021/03/24 11:10:59;;;;;;;43.93;39.83;;;11.50;59.90;;;;;;5095511;28;20459;-77
2021/03/24 11:13:31;;;;;;;41.13;37.37;;;11.60;59.90;;;;;;5095391;28;20509;-77
2021/03/24 11:16:15;;;;;;;44.93;40.97;;;11.80;59.50;;;;;;5095387;28;20848;-76
2021/03/24 11:18:45;;;;;;;41.73;38.03;;;11.90;58.80;;;;;;5095119;28;20982;-77
2021/03/24 11:21:33;;;;;;;39.40;35.60;;;12.00;58.20;;;;;;5095204;28;21050;-77
2021/03/24 11:24:14;;;;;;;39.93;36.63;;;12.00;57.90;;;;;;5095195;28;20980;-77
2021/03/24 11:27:08;;;;;;;38.27;35.13;;;12.10;57.60;;;;;;5095143;28;20453;-77
2021/03/24 11:29:44;;;;;;;39.23;36.43;;;12.10;58.20;;;;;;5094694;28;20473;-77
2021/03/24 11:32:25;;;;;;;38.07;35.13;;;12.10;57.50;;;;;;5095023;28;20453;-77
2021/03/24 11:34:57;;;;;;;41.60;38.03;;;12.00;57.90;;;;;;5095015;28;20524;-77
2021/03/24 11:37:39;;;;;;;40.03;36.50;;;12.10;57.80;;;;;;5094764;28;20858;-77
2021/03/24 11:40:13;;;;;;;39.17;35.97;;;12.20;57.60;;;;;;5094726;28;20477;-77
2021/03/24 11:42:49;;;;;;;41.13;37.60;;;12.40;57.50;;;;;;5094843;28;20457;-77
2021/03/24 11:45:20;;;;;;;40.67;37.20;;;12.50;56.60;;;;;;5094716;28;20513;-76
2021/03/24 11:48:00;;;;;;;41.93;38.03;;;12.50;56.70;;;;;;5094923;28;20538;-77
2021/03/24 11:50:33;;;;;;;41.83;38.63;;;12.40;56.90;;;;;;5094649;28;20526;-77
2021/03/24 11:53:04;;;;;;;40.97;37.40;;;12.50;56.60;;;;;;5094727;28;20460;-77
2021/03/24 11:55:47;;;;;;;38.83;35.83;;;12.40;56.80;;;;;;5094329;28;20449;-76
2021/03/24 11:58:41;;;;;;;39.53;36.47;;;12.40;57.40;;;;;;5094557;28;20476;-77
2021/03/24 12:01:22;;;;;;;38.30;35.00;;;12.50;57.00;;;;;;5093871;28;20453;-77
2021/03/24 12:04:19;;;;;;;39.00;35.20;;;12.60;57.00;;;;;;5094502;28;20452;-77
2021/03/24 12:06:57;;;;;;;39.57;35.10;;;12.80;57.00;;;;;;5089481;28;20453;-77
2021/03/24 12:09:28;;;;;;;40.70;37.30;;;12.90;56.10;;;;;;5094318;28;20552;-77
2021/03/24 12:12:04;;;;;;;40.90;37.40;;;13.10;55.20;;;;;;5094600;28;20449;-77
2021/03/24 12:14:31;;;;;;;42.40;38.23;;;13.20;55.10;;;;;;5094543;28;20448;-76
2021/03/24 12:17:00;;;;;;;41.23;37.73;;;13.20;55.00;;;;;;5093998;28;20449;-77
2021/03/24 12:19:34;;;;;;;42.33;39.07;;;13.10;55.10;;;;;;5094044;28;20481;-77
2021/03/24 12:22:04;;;;;;;41.83;38.10;;;13.20;55.20;;;;;;5094112;28;20492;-77
2021/03/24 12:24:37;;;;;;;41.93;38.20;;;13.20;55.10;;;;;;5094114;28;20449;-77
2021/03/24 12:27:11;;;;;;;41.77;38.40;;;13.30;55.00;;;;;;5093867;28;20540;-77
2021/03/24 12:29:38;;;;;;;43.43;39.70;;;13.30;54.80;;;;;;5093848;28;20507;-77
2021/03/24 12:32:08;;;;;;;44.40;40.70;;;13.30;55.00;;;;;;5093960;28;20453;-77
2021/03/24 12:34:42;;;;;;;40.87;37.50;;;13.50;54.40;;;;;;5093777;28;20486;-77
2021/03/24 12:37:23;;;;;;;41.67;38.30;;;13.50;54.60;;;;;;5093605;28;20984;-77
2021/03/24 12:39:51;;;;;;;43.03;39.13;;;13.60;54.60;;;;;;5093004;28;20477;-77
2021/03/24 12:42:31;;;;;;;42.00;38.40;;;13.50;54.80;;;;;;5093647;28;20456;-77
2021/03/24 12:44:59;;;;;;;41.80;38.40;;;13.60;54.60;;;;;;5093669;28;20461;-77
2021/03/24 12:47:34;;;;;;;40.90;37.57;;;13.70;54.20;;;;;;5093493;28;20981;-77
2021/03/24 12:50:27;;;;;;;44.60;41.20;;;13.80;53.80;;;;;;5093502;28;20808;-77
2021/03/24 12:53:09;;;;;;;41.93;38.53;;;13.90;53.60;;;;;;5093495;28;20823;-77
2021/03/24 12:55:36;;;;;;;43.23;39.60;;;13.80;54.00;;;;;;5093243;28;20452;-77
2021/03/24 12:58:17;;;;;;;42.70;39.30;;;13.90;54.00;;;;;;5093387;28;20449;-77
2021/03/24 13:00:58;;;;;;;41.17;37.80;;;13.80;54.10;;;;;;5093069;28;20477;-77
2021/03/24 13:04:03;;;;;;;42.17;38.60;;;13.90;54.00;;;;;;5093387;28;20496;-77
2021/03/24 13:06:41;;;;;;;42.03;38.43;;;13.90;54.30;;;;;;5091658;28;20459;-77
2021/03/24 13:09:19;;;;;;;41.33;37.63;;;13.90;53.90;;;;;;5093211;28;20522;-77
2021/03/24 13:11:53;;;;;;;43.20;39.57;;;14.10;54.00;;;;;;5093165;28;20484;-77
2021/03/24 13:14:37;;;;;;;41.37;37.77;;;14.10;53.90;;;;;;5093074;28;20532;-77
2021/03/24 13:17:13;;;;;;;43.73;39.70;;;14.20;53.80;;;;;;5093096;28;20480;-77